Corsicana, TX

1:05 PM CST on January 21, 2017 (GMT -0600)
Richland Chambers Res.,Eureka | | Change Station

Elev 350 ft 31.99 °N, 96.28 °W | Updated 36 seconds ago

Overcast
Overcast
63.2 °F
Feels Like 63.2 °F
N
2.0
Wind Variable Wind from South
Gusts 4.0 mph

Today
High -- | Low -- °F
--% Chance of Precip.
Yesterday
High -- | Low -- °F
Precip. -- in
Pressure 29.62 in
Visibility 3.0 miles
Clouds Overcast 500 ft
Dew Point 60 °F
Humidity 90%
Rainfall 0.00 in
Snow Depth Not available.
7:24 AM 5:49 PM
Waning Crescent, 33% visible
SPECI KCRS 211633Z AUTO 21008KT 3SM BR OVC005 17/16 A2962 RMK AO2 T01720161
Pressure 29.62 in
Visibility 3.0 miles
Clouds Overcast 500 ft
Dew Point 60 °F
Humidity 90%
Rainfall 0.00 in
Snow Depth Not available.
7:24 AM 5:49 PM
Waning Crescent, 33% visible
SPECI KCRS 211633Z AUTO 21008KT 3SM BR OVC005 17/16 A2962 RMK AO2 T01720161

Get Your Daily Forecast Email!

Thanks for signing up!

Be on the lookout for a verification email in your inbox.

You'll start receiving the daily forecast at 8 AM.

×

10-Day Weather Forecast

Almanac

Astronomy

Jan. 21, 2017 Rise Set
Actual Time
Civil Twilight
Nautical Twilight
Astronomical Twilight
Moon
Length of Visible Light
Length of Day
Tomorrow will be .
, % of the Moon is Illuminated

Today's Extremes

State Highs State Lows

Community

WunderPhotos

Upload Photos

1,962,540 photos uploaded!

WunderBlog® & News

Nearby

Air Quality

  Air Quality AQ Index Pollutant
Not available.

Snow Depth

Station Depth Elevation

Earthquake Activity

City Distance Mag. Time & Date
Minimum magnitude displayed is 2.5.

Coastal Water Temperatures

Place Temperature

Stations

Nearby Weather Stations

Station Location Temp. Windchill Dew Point Humidity Wind Precip. Elev Updated Type
                   

Watches & Warnings

There are currently no watches in effect.